TNCB/BON METAR and TAF weather

Enter ICAO airport designator
Station Type Date Time Source
TNCB METAR 2021/05/14 12:55 UTC NOAA

TNCB 141255Z 09016KT 9999 FEW020 29/22 Q1014


Station Type Date Time Source
TNCB Decoded METAR 2021/05/14 12:55 UTC NOAA

Flamingo Airport, Bonaire, Netherlands Antilles (TNCB) 12-09N 068-17W 7M
May 14, 2021 - 08:55 AM EDT / 2021.05.14 1255 UTC
Wind: from the E (090 degrees) at 18 MPH (16 KT):0
Visibility: greater than 7 mile(s):0
Sky conditions: mostly clear
Temperature: 84 F (29 C)
Dew Point: 71 F (22 C)
Relative Humidity: 65%
Pressure (altimeter): 29.94 in. Hg (1014 hPa)
ob: TNCB 141255Z 09016KT 9999 FEW020 29/22 Q1014
cycle: 13

Station Type Date Time Source
TNCB TAF 2021/05/14 12:27 UTC NOAA

TAF TNCB 141112Z 1412/1518 08015KT 9999 SCT018

Example: see airport list